Time;durP1;ratioP1;P1;durP2;ratioP2;P2;SDS_P1;SDS_P2;PMS_P1;PMS_P2;Temp;Humidity;BMP_temperature;BMP_pressure;BME280_temperature;BME280_humidity;BME280_pressure;Samples;Min_cycle;Max_cycle;Signal;HPM_P1;HPM_P2
2021/07/22 00:00:23;;;;;;;9.52;6.30;;;;;;;19.16;52.05;99045.69;5092529;28;20023;-75
2021/07/22 00:02:50;;;;;;;11.13;5.78;;;;;;;19.13;52.19;99049.19;5094383;28;20040;-72
2021/07/22 00:05:16;;;;;;;8.77;5.85;;;;;;;19.13;52.21;99051.13;5092135;28;20081;-72
2021/07/22 00:07:41;;;;;;;8.27;5.00;;;;;;;19.08;52.37;99045.75;5092540;28;20032;-72
2021/07/22 00:10:07;;;;;;;10.95;5.78;;;;;;;19.04;52.22;99048.41;5094729;28;20531;-72
2021/07/22 00:12:33;;;;;;;8.98;5.13;;;;;;;19.00;52.44;99044.69;5093214;28;20502;-73
2021/07/22 00:14:59;;;;;;;6.85;4.85;;;;;;;18.95;52.54;99045.66;5091528;28;20077;-73
2021/07/22 00:17:24;;;;;;;10.15;5.18;;;;;;;18.93;52.59;99047.16;5090385;28;20051;-72
2021/07/22 00:19:49;;;;;;;8.88;5.40;;;;;;;18.94;52.66;99046.84;5094093;28;20043;-72
2021/07/22 00:22:15;;;;;;;9.32;5.32;;;;;;;18.89;52.61;99049.81;5093122;28;20111;-72
2021/07/22 00:24:40;;;;;;;8.15;4.72;;;;;;;18.87;52.47;99057.66;5091165;28;20023;-72
2021/07/22 00:27:06;;;;;;;10.23;5.85;;;;;;;18.83;52.93;99051.16;5091231;28;20046;-73
2021/07/22 00:29:34;;;;;;;10.73;5.70;;;;;;;18.81;52.85;99051.47;5094723;28;20075;-72
2021/07/22 00:32:00;;;;;;;8.48;5.40;;;;;;;18.77;52.81;99056.06;5092357;28;20035;-72
2021/07/22 00:34:25;;;;;;;11.40;5.97;;;;;;;18.76;53.06;99046.09;5090260;28;20051;-73
2021/07/22 00:36:51;;;;;;;10.55;5.93;;;;;;;18.76;52.93;99043.34;5093442;28;20111;-72
2021/07/22 00:39:17;;;;;;;9.95;5.63;;;;;;;18.73;53.10;99046.81;5091463;28;20066;-73
2021/07/22 00:41:43;;;;;;;9.43;5.55;;;;;;;18.73;53.13;99047.63;5087970;28;20024;-73
2021/07/22 00:44:08;;;;;;;10.38;5.70;;;;;;;18.70;52.92;99042.72;5089953;28;20031;-74
2021/07/22 00:46:34;;;;;;;9.23;5.80;;;;;;;18.66;53.28;99036.22;5091076;28;20381;-73
2021/07/22 00:48:59;;;;;;;9.52;5.57;;;;;;;18.64;53.12;99037.72;5090903;28;20027;-74
2021/07/22 00:51:24;;;;;;;10.00;5.88;;;;;;;18.62;53.28;99042.78;5090114;28;20488;-74
2021/07/22 00:53:50;;;;;;;10.18;5.72;;;;;;;18.60;53.32;99040.31;5092031;28;20027;-73
2021/07/22 00:56:15;;;;;;;8.50;5.78;;;;;;;18.55;53.28;99034.97;5091942;28;20020;-73
2021/07/22 00:58:40;;;;;;;8.88;5.88;;;;;;;18.54;53.25;99041.69;5089718;28;20061;-74
2021/07/22 01:01:06;;;;;;;10.63;5.90;;;;;;;18.52;53.46;99044.00;5094307;28;20075;-72
2021/07/22 01:03:31;;;;;;;10.52;6.15;;;;;;;18.50;53.53;99044.31;5092744;28;20048;-73
2021/07/22 01:05:56;;;;;;;9.32;5.72;;;;;;;18.48;53.32;99040.25;5088722;28;20546;-73
2021/07/22 01:08:22;;;;;;;10.57;5.82;;;;;;;18.47;53.38;99041.41;5091273;28;20087;-74
2021/07/22 01:10:47;;;;;;;8.90;5.95;;;;;;;18.43;53.56;99042.06;5093152;28;20501;-74
2021/07/22 01:13:12;;;;;;;9.95;5.88;;;;;;;18.41;53.69;99040.75;5090940;28;20436;-74
2021/07/22 01:15:38;;;;;;;9.88;5.82;;;;;;;18.39;53.59;99049.44;5090803;28;20545;-74
2021/07/22 01:18:03;;;;;;;10.07;6.38;;;;;;;18.33;53.66;99034.13;5092408;28;20390;-73
2021/07/22 01:20:29;;;;;;;9.63;6.13;;;;;;;18.34;53.65;99046.84;5091455;28;20469;-73
2021/07/22 01:22:56;;;;;;;9.32;5.53;;;;;;;18.34;53.97;99048.81;5089735;28;20074;-74
2021/07/22 01:25:22;;;;;;;10.13;6.22;;;;;;;18.33;53.94;99041.66;5090541;28;20055;-74
2021/07/22 01:27:49;;;;;;;10.38;6.28;;;;;;;18.30;53.83;99040.34;5093039;28;20485;-73
2021/07/22 01:30:16;;;;;;;10.10;6.35;;;;;;;18.29;53.85;99041.47;5093578;28;20028;-73
2021/07/22 01:32:42;;;;;;;10.13;6.10;;;;;;;18.29;54.16;99039.53;5099113;28;20035;-73
2021/07/22 01:35:09;;;;;;;14.20;6.65;;;;;;;18.27;54.04;99035.44;5095013;28;20542;-73
2021/07/22 01:37:35;;;;;;;9.73;6.25;;;;;;;18.29;54.25;99041.47;5094287;28;20489;-73
2021/07/22 01:40:00;;;;;;;8.10;5.40;;;;;;;18.26;54.27;99039.38;5093382;28;20027;-73
2021/07/22 01:42:26;;;;;;;18.35;7.05;;;;;;;18.24;54.22;99041.66;5093319;28;20028;-72
2021/07/22 01:44:51;;;;;;;11.40;6.47;;;;;;;18.22;54.33;99041.19;5093270;28;20412;-72
2021/07/22 01:47:17;;;;;;;9.88;6.50;;;;;;;18.18;54.38;99041.03;5098556;28;20539;-72
2021/07/22 01:49:42;;;;;;;10.48;6.18;;;;;;;18.16;54.54;99046.09;5096582;28;20016;-72
2021/07/22 01:52:08;;;;;;;12.98;7.05;;;;;;;18.11;54.40;99037.97;5095820;28;20257;-72
2021/07/22 01:54:33;;;;;;;13.52;6.97;;;;;;;18.09;54.85;99043.84;5094338;28;20071;-72
2021/07/22 01:57:00;;;;;;;10.43;6.78;;;;;;;18.06;54.67;99043.69;5093879;28;20706;-72
2021/07/22 01:59:26;;;;;;;12.90;6.97;;;;;;;18.04;54.93;99044.03;5095170;28;20035;-72
2021/07/22 02:01:51;;;;;;;14.68;7.22;;;;;;;18.00;54.79;99048.63;5094342;28;20085;-72
2021/07/22 02:04:16;;;;;;;13.65;7.03;;;;;;;17.99;54.94;99044.22;5097988;28;20036;-71
2021/07/22 02:06:42;;;;;;;12.10;6.72;;;;;;;17.94;55.13;99047.13;5096427;28;20115;-72
2021/07/22 02:09:07;;;;;;;12.38;7.18;;;;;;;17.90;55.28;99054.50;5096150;28;20020;-71
2021/07/22 02:11:33;;;;;;;12.13;6.85;;;;;;;17.86;55.07;99041.28;5094724;28;20457;-72
2021/07/22 02:13:58;;;;;;;12.25;7.45;;;;;;;17.83;55.20;99049.47;5095132;28;20533;-71
2021/07/22 02:16:24;;;;;;;10.98;7.18;;;;;;;17.78;55.43;99047.66;5091630;28;20024;-71
2021/07/22 02:18:49;;;;;;;11.60;6.28;;;;;;;17.73;55.61;99045.06;5092155;28;20024;-72
2021/07/22 02:21:16;;;;;;;12.50;7.03;;;;;;;17.70;55.40;99046.53;5093145;28;20008;-72
2021/07/22 02:23:42;;;;;;;13.25;7.70;;;;;;;17.70;55.92;99040.19;5098815;28;20048;-75
2021/07/22 02:26:08;;;;;;;12.90;7.10;;;;;;;17.69;55.66;99055.22;5095938;28;20089;-73
2021/07/22 02:28:34;;;;;;;12.27;7.22;;;;;;;17.67;55.84;99044.44;5093060;28;20035;-74
2021/07/22 02:31:01;;;;;;;15.20;7.80;;;;;;;17.66;55.73;99053.88;5094157;28;20024;-74
2021/07/22 02:33:26;;;;;;;17.77;7.72;;;;;;;17.68;56.07;99048.81;5090578;28;20039;-75
2021/07/22 02:35:52;;;;;;;13.15;7.57;;;;;;;17.67;55.94;99046.41;5091116;28;20470;-75
2021/07/22 02:38:17;;;;;;;13.18;7.30;;;;;;;17.64;55.99;99042.31;5092428;28;20100;-74
2021/07/22 02:40:43;;;;;;;13.02;6.82;;;;;;;17.66;56.40;99048.34;5097514;28;20015;-75
2021/07/22 02:43:08;;;;;;;14.63;7.43;;;;;;;17.68;56.54;99050.81;5103590;28;20024;-75
2021/07/22 02:45:39;;;;;;;13.43;7.05;;;;;;;17.70;56.26;99048.50;5097143;28;20045;-75
2021/07/22 02:48:05;;;;;;;14.48;8.05;;;;;;;17.68;56.29;99051.59;5095204;28;20020;-75
2021/07/22 02:50:32;;;;;;;13.23;7.40;;;;;;;17.69;56.69;99053.22;5094269;28;21093;-74
2021/07/22 02:53:00;;;;;;;11.50;7.32;;;;;;;17.69;56.37;99055.22;5095881;28;20027;-74
2021/07/22 02:55:26;;;;;;;13.48;6.85;;;;;;;17.69;56.42;99055.22;5093155;28;20478;-75
2021/07/22 02:57:51;;;;;;;11.77;7.40;;;;;;;17.70;56.75;99051.28;5090949;28;20042;-74
2021/07/22 03:00:16;;;;;;;14.05;7.30;;;;;;;17.70;56.50;99056.84;5100361;28;20020;-75
2021/07/22 03:02:42;;;;;;;14.00;7.63;;;;;;;17.73;56.93;99058.94;5096479;28;20105;-75
2021/07/22 03:05:08;;;;;;;14.70;7.50;;;;;;;17.70;56.94;99059.63;5092465;28;20012;-74
2021/07/22 03:07:33;;;;;;;16.10;8.18;;;;;;;17.70;56.85;99054.06;5094891;28;20397;-75
2021/07/22 03:09:59;;;;;;;12.30;6.90;;;;;;;17.70;56.81;99059.63;5099117;28;20055;-75
2021/07/22 03:12:24;;;;;;;12.88;7.68;;;;;;;17.70;56.93;99051.28;5096392;28;20094;-74
2021/07/22 03:14:49;;;;;;;12.98;7.28;;;;;;;17.73;57.21;99049.81;5095415;28;20027;-76
2021/07/22 03:17:15;;;;;;;14.25;8.02;;;;;;;17.72;57.06;99046.22;5097467;28;20028;-75
2021/07/22 03:19:40;;;;;;;12.60;7.57;;;;;;;17.69;56.88;99052.44;5095447;28;20467;-75
2021/07/22 03:22:05;;;;;;;11.85;6.88;;;;;;;17.71;57.12;99045.41;5092582;28;20012;-75
2021/07/22 03:24:31;;;;;;;13.55;7.50;;;;;;;17.74;57.08;99049.47;5101477;28;20029;-75
2021/07/22 03:26:57;;;;;;;12.65;7.78;;;;;;;17.75;57.29;99050.28;5098733;28;20032;-76
2021/07/22 03:29:22;;;;;;;13.88;7.78;;;;;;;17.76;57.13;99047.16;5096344;28;20503;-75
2021/07/22 03:31:47;;;;;;;13.10;7.80;;;;;;;17.75;57.03;99047.50;5093991;28;20115;-75
2021/07/22 03:34:13;;;;;;;15.43;8.32;;;;;;;17.75;57.37;99053.06;5094150;28;20031;-75
2021/07/22 03:36:38;;;;;;;12.02;7.60;;;;;;;17.77;57.36;99056.31;5093621;28;20052;-75
2021/07/22 03:39:04;;;;;;;14.70;7.78;;;;;;;17.79;57.81;99056.81;5097469;28;20024;-75
2021/07/22 03:41:29;;;;;;;15.55;7.82;;;;;;;17.75;57.28;99059.41;5102568;28;20647;-75
2021/07/22 03:43:54;;;;;;;11.60;7.40;;;;;;;17.76;57.50;99063.00;5097754;28;20246;-75
2021/07/22 03:46:20;;;;;;;11.18;7.85;;;;;;;17.73;57.45;99052.56;5097513;28;20015;-75
2021/07/22 03:48:45;;;;;;;15.68;8.73;;;;;;;17.73;57.51;99061.69;5093334;28;20035;-74
2021/07/22 03:51:10;;;;;;;12.65;8.07;;;;;;;17.71;57.49;99058.47;5092130;28;20023;-75
2021/07/22 03:53:36;;;;;;;13.48;7.80;;;;;;;17.69;57.24;99053.22;5091147;28;20050;-74
2021/07/22 03:56:02;;;;;;;14.23;8.48;;;;;;;17.70;57.45;99054.88;5096287;28;20028;-74
2021/07/22 03:58:27;;;;;;;10.85;7.20;;;;;;;17.71;57.66;99059.28;5101365;28;20031;-75
2021/07/22 04:00:57;;;;;;;14.90;8.18;;;;;;;17.70;57.62;99057.63;5100398;28;20048;-74
2021/07/22 04:03:22;;;;;;;14.45;8.13;;;;;;;17.70;57.71;99062.38;5097934;28;20094;-75
2021/07/22 04:05:47;;;;;;;13.77;8.57;;;;;;;17.71;57.76;99052.91;5094493;28;20024;-74
2021/07/22 04:08:12;;;;;;;17.00;9.05;;;;;;;17.69;58.21;99055.22;5091889;28;20024;-74
2021/07/22 04:10:38;;;;;;;11.55;7.57;;;;;;;17.67;58.09;99065.81;5091750;28;20027;-75
2021/07/22 04:13:03;;;;;;;13.70;8.65;;;;;;;17.65;58.17;99057.00;5105767;28;20382;-74
2021/07/22 04:15:29;;;;;;;11.98;8.02;;;;;;;17.62;58.13;99060.44;5100913;28;20362;-74
2021/07/22 04:17:56;;;;;;;14.15;7.93;;;;;;;17.65;58.58;99054.22;5101115;28;20430;-75
2021/07/22 04:20:23;;;;;;;15.77;9.00;;;;;;;17.65;58.94;99060.56;5098123;28;20020;-75
2021/07/22 04:22:50;;;;;;;14.27;8.48;;;;;;;17.61;58.24;99053.25;5095539;28;20036;-75
2021/07/22 04:25:15;;;;;;;13.95;7.82;;;;;;;17.60;58.41;99071.84;5091851;28;20445;-74
2021/07/22 04:27:41;;;;;;;13.75;8.90;;;;;;;17.61;58.64;99056.84;5102245;28;20043;-74
2021/07/22 04:30:07;;;;;;;15.88;9.35;;;;;;;17.60;58.61;99063.53;5106452;28;20382;-75
2021/07/22 04:32:33;;;;;;;14.45;8.93;;;;;;;17.54;59.07;99064.81;5102881;28;20027;-75
2021/07/22 04:34:58;;;;;;;15.50;8.30;;;;;;;17.53;58.66;99063.19;5097109;28;20020;-74
2021/07/22 04:37:24;;;;;;;14.77;8.70;;;;;;;17.52;58.77;99067.16;5097635;28;20031;-75
2021/07/22 04:39:49;;;;;;;16.23;8.77;;;;;;;17.50;59.53;99064.69;5093996;28;20031;-74
2021/07/22 04:42:14;;;;;;;16.05;8.65;;;;;;;17.44;59.70;99060.44;5091306;28;20103;-74
2021/07/22 04:44:40;;;;;;;13.52;8.77;;;;;;;17.41;59.43;99069.41;5092945;28;20099;-73
2021/07/22 04:47:05;;;;;;;13.50;8.68;;;;;;;17.39;59.36;99075.31;5093854;28;20043;-73
2021/07/22 04:49:30;;;;;;;15.45;8.75;;;;;;;17.37;59.45;99076.75;5099233;28;20402;-74
2021/07/22 04:51:59;;;;;;;13.40;8.63;;;;;;;17.35;59.66;99071.53;5098093;28;20630;-74
2021/07/22 04:54:24;;;;;;;17.30;9.30;;;;;;;17.35;59.75;99068.78;5094734;28;20024;-73
2021/07/22 04:56:50;;;;;;;15.20;9.23;;;;;;;17.34;59.70;99077.41;5091236;28;20489;-74
2021/07/22 04:59:15;;;;;;;15.45;9.68;;;;;;;17.34;59.82;99077.41;5096156;28;20028;-74
2021/07/22 05:01:41;;;;;;;15.40;8.88;;;;;;;17.37;60.06;99079.53;5097837;28;20016;-74
2021/07/22 05:04:07;;;;;;;14.25;9.27;;;;;;;17.37;59.51;99071.22;5096558;28;20048;-72
2021/07/22 05:06:33;;;;;;;15.65;8.68;;;;;;;17.40;59.96;99073.31;5097069;28;20020;-72
2021/07/22 05:09:00;;;;;;;15.63;9.30;;;;;;;17.44;59.77;99074.31;5096985;28;20043;-73
2021/07/22 05:11:25;;;;;;;19.65;9.32;;;;;;;17.48;60.28;99072.50;5096574;28;20099;-72
2021/07/22 05:13:51;;;;;;;18.00;9.13;;;;;;;17.47;60.27;99079.19;5096477;28;20433;-73
2021/07/22 05:16:16;;;;;;;16.10;8.90;;;;;;;17.47;60.28;99070.88;5096190;28;20020;-73
2021/07/22 05:18:41;;;;;;;15.77;9.80;;;;;;;17.49;60.38;99076.13;5095417;28;20038;-73
2021/07/22 05:21:07;;;;;;;20.48;10.48;;;;;;;17.53;60.37;99077.91;5096750;28;20024;-74
2021/07/22 05:23:33;;;;;;;17.50;9.25;;;;;;;17.59;60.19;99083.28;5096811;28;20428;-74
2021/07/22 05:26:05;;;;;;;15.55;9.52;;;;;;;17.63;60.31;99076.72;5097074;28;20050;-74
2021/07/22 05:28:30;;;;;;;17.00;9.48;;;;;;;17.69;59.85;99074.63;5096385;28;20493;-73
2021/07/22 05:30:56;;;;;;;20.55;9.88;;;;;;;17.76;60.13;99080.47;5096819;28;20062;-74
2021/07/22 05:33:21;;;;;;;17.85;10.02;;;;;;;17.80;60.46;99075.88;5097331;28;20028;-74
2021/07/22 05:35:46;;;;;;;17.58;9.23;;;;;;;17.81;59.88;99077.50;5096024;28;20032;-74
2021/07/22 05:38:12;;;;;;;14.93;8.35;;;;;;;17.84;60.03;99074.09;5096758;28;20036;-74
2021/07/22 05:40:37;;;;;;;18.33;9.68;;;;;;;17.86;60.23;99080.13;5097481;28;20052;-74
2021/07/22 05:43:03;;;;;;;17.98;9.77;;;;;;;17.95;60.00;99079.28;5097336;28;20031;-74
2021/07/22 05:45:31;;;;;;;16.05;9.27;;;;;;;17.99;60.03;99083.88;5097121;28;20032;-73
2021/07/22 05:47:56;;;;;;;15.38;8.23;;;;;;;17.99;59.77;99083.06;5096584;28;20039;-73
2021/07/22 05:50:22;;;;;;;15.40;9.43;;;;;;;17.98;60.18;99082.22;5096937;28;20028;-73
2021/07/22 05:52:47;;;;;;;16.85;9.90;;;;;;;18.06;59.95;99086.16;5096934;28;20105;-73
2021/07/22 05:55:12;;;;;;;17.60;9.80;;;;;;;18.12;60.06;99082.06;5097012;28;20036;-73
2021/07/22 05:57:38;;;;;;;17.23;9.60;;;;;;;18.20;60.07;99087.88;5096451;28;20040;-74
2021/07/22 06:00:05;;;;;;;20.92;9.73;;;;;;;18.25;59.87;99085.75;5096828;28;20111;-73
2021/07/22 06:02:30;;;;;;;16.38;9.05;;;;;;;18.32;60.09;99087.22;5096314;28;20063;-74
2021/07/22 06:04:56;;;;;;;20.50;10.20;;;;;;;18.35;60.12;99087.34;5096764;28;20070;-73
2021/07/22 06:07:21;;;;;;;19.60;10.30;;;;;;;18.30;59.61;99088.38;5096483;28;20032;-73
2021/07/22 06:09:46;;;;;;;16.10;9.80;;;;;;;18.30;59.80;99088.38;5096946;28;20024;-73
2021/07/22 06:12:12;;;;;;;16.40;9.88;;;;;;;18.34;59.65;99091.28;5092685;28;20077;-74
2021/07/22 06:14:37;;;;;;;14.25;9.18;;;;;;;18.36;59.59;99088.97;5092400;28;20103;-73
2021/07/22 06:17:03;;;;;;;16.05;8.98;;;;;;;18.47;59.69;99083.88;5097637;28;20031;-73
2021/07/22 06:19:32;;;;;;;16.70;9.60;;;;;;;18.56;59.68;99095.75;5093576;28;20081;-73
2021/07/22 06:21:57;;;;;;;16.60;9.35;;;;;;;18.60;59.65;99087.56;5093830;28;20023;-74
2021/07/22 06:24:23;;;;;;;15.48;9.55;;;;;;;18.60;59.37;99087.56;5093410;28;20366;-73
2021/07/22 06:26:48;;;;;;;16.85;9.20;;;;;;;18.68;59.52;99089.47;5093888;28;20484;-73
2021/07/22 06:29:13;;;;;;;16.25;9.75;;;;;;;18.72;59.57;99086.88;5093454;28;20473;-73
2021/07/22 06:31:39;;;;;;;16.02;9.65;;;;;;;18.76;59.53;99085.00;5093320;28;20530;-73
2021/07/22 06:34:04;;;;;;;17.08;10.60;;;;;;;18.82;59.45;99082.88;5091176;28;20035;-73
2021/07/22 06:36:29;;;;;;;18.33;10.68;;;;;;;18.86;59.32;99081.06;5093291;28;20024;-74
2021/07/22 06:38:55;;;;;;;19.00;10.93;;;;;;;18.90;59.53;99074.47;5093434;28;20028;-74
2021/07/22 06:41:21;;;;;;;16.20;9.98;;;;;;;18.93;59.22;99078.56;5092680;28;20040;-72
2021/07/22 06:43:47;;;;;;;19.17;10.00;;;;;;;18.99;59.51;99077.22;5092888;28;20024;-74
2021/07/22 06:46:12;;;;;;;16.55;10.02;;;;;;;19.06;59.43;99067.53;5092897;28;20490;-73
2021/07/22 06:48:37;;;;;;;17.58;10.30;;;;;;;19.10;59.49;99082.38;5092801;28;20020;-75
2021/07/22 06:51:06;;;;;;;17.10;10.48;;;;;;;19.13;59.25;99084.50;5092975;28;20060;-74
2021/07/22 06:53:31;;;;;;;18.88;10.52;;;;;;;19.16;59.60;99078.25;5085301;28;20106;-73
2021/07/22 06:55:57;;;;;;;20.35;11.68;;;;;;;19.18;59.41;99078.72;5091152;28;20028;-72
2021/07/22 06:58:22;;;;;;;15.75;10.68;;;;;;;19.20;59.46;99076.41;5091158;28;20088;-75
2021/07/22 07:00:48;;;;;;;21.23;11.13;;;;;;;19.25;59.43;99075.41;5090990;28;20031;-74
2021/07/22 07:03:13;;;;;;;15.95;10.25;;;;;;;19.29;59.24;99079.13;5090961;28;20040;-75
2021/07/22 07:05:39;;;;;;;19.67;10.63;;;;;;;19.36;59.11;99081.38;5092354;28;20419;-75
2021/07/22 07:08:05;;;;;;;16.77;9.00;;;;;;;19.40;58.98;99077.56;5093710;28;20108;-75
2021/07/22 07:10:32;;;;;;;13.63;8.63;;;;;;;19.45;58.85;99071.81;5085812;28;20085;-74
2021/07/22 07:12:57;;;;;;;16.48;9.85;;;;;;;19.51;58.68;99072.41;5092778;28;20077;-74
2021/07/22 07:15:24;;;;;;;13.82;8.15;;;;;;;19.56;59.02;99076.94;5090747;28;20427;-73
2021/07/22 07:17:50;;;;;;;15.15;9.27;;;;;;;19.57;58.87;99073.81;5090698;28;20902;-74
2021/07/22 07:20:15;;;;;;;15.80;10.02;;;;;;;19.58;58.88;99072.66;5091599;28;20016;-75
2021/07/22 07:22:41;;;;;;;17.75;9.52;;;;;;;19.64;59.09;99068.50;5092483;28;20410;-73
2021/07/22 07:25:07;;;;;;;15.63;9.27;;;;;;;19.66;58.73;99067.34;5091916;28;20085;-72
2021/07/22 07:27:34;;;;;;;14.98;9.07;;;;;;;19.64;58.29;99062.13;5092368;28;20064;-73
2021/07/22 07:30:00;;;;;;;14.00;8.52;;;;;;;19.67;58.31;99060.63;5097844;28;20027;-74
2021/07/22 07:32:25;;;;;;;16.58;9.32;;;;;;;19.70;58.64;99062.75;5093592;28;20020;-75
2021/07/22 07:34:50;;;;;;;14.15;9.27;;;;;;;;;;5091275;28;20040;-74
2021/07/22 07:37:16;;;;;;;14.10;8.98;;;;;;;19.84;58.50;99045.72;5093698;28;20043;-75
2021/07/22 07:39:41;;;;;;;15.25;9.32;;;;;;;19.91;58.47;99048.81;5093907;28;20016;-73
2021/07/22 07:42:07;;;;;;;14.05;8.60;;;;;;;20.01;58.30;99051.13;5088323;28;20485;-73
2021/07/22 07:44:32;;;;;;;14.73;9.05;;;;;;;20.06;58.48;99047.31;5085803;28;20992;-75
2021/07/22 07:46:57;;;;;;;13.32;8.07;;;;;;;20.14;58.27;99057.53;5088379;28;20031;-74
2021/07/22 07:49:23;;;;;;;16.52;8.75;;;;;;;20.17;57.83;99053.25;5090289;28;20028;-73
2021/07/22 07:51:48;;;;;;;12.07;7.78;;;;;;;20.18;57.74;99054.88;5089743;28;20470;-73
2021/07/22 07:54:19;;;;;;;14.57;8.05;;;;;;;20.23;57.58;99049.06;5089361;28;20390;-76
2021/07/22 07:56:44;;;;;;;11.73;7.13;;;;;;;20.30;57.26;99051.28;5090168;28;20459;-74
2021/07/22 07:59:09;;;;;;;12.40;7.68;;;;;;;20.34;57.00;99052.22;5089875;28;20024;-73
2021/07/22 08:01:35;;;;;;;12.52;7.28;;;;;;;20.41;57.00;99051.63;5088203;28;20052;-72
2021/07/22 08:04:01;;;;;;;14.68;7.72;;;;;;;20.50;57.36;99058.72;5087920;28;20036;-72
2021/07/22 08:06:26;;;;;;;12.10;7.63;;;;;;;20.61;56.80;99050.69;5089242;28;20117;-72
2021/07/22 08:08:51;;;;;;;11.38;6.93;;;;;;;20.70;56.14;99047.78;5088945;28;20032;-74
2021/07/22 08:11:18;;;;;;;14.07;7.22;;;;;;;20.77;55.84;99055.59;5088408;28;20024;-74
2021/07/22 08:13:43;;;;;;;11.98;6.97;;;;;;;20.84;54.83;99055.81;5089558;28;20081;-73
2021/07/22 08:16:14;;;;;;;12.23;6.75;;;;;;;20.89;54.92;99052.78;5088285;28;20024;-71
2021/07/22 08:18:40;;;;;;;11.63;5.95;;;;;;;20.91;54.42;99052.44;5090368;28;20028;-72
2021/07/22 08:21:06;;;;;;;11.82;6.55;;;;;;;20.95;52.75;99051.38;5089978;28;20105;-72
2021/07/22 08:23:31;;;;;;;9.85;6.18;;;;;;;21.00;53.62;99053.09;5089047;28;20474;-72
2021/07/22 08:25:57;;;;;;;8.75;5.75;;;;;;;21.03;53.39;99052.41;5088237;28;20028;-71
2021/07/22 08:28:22;;;;;;;12.75;6.72;;;;;;;21.06;53.28;99045.31;5088922;28;20027;-72
2021/07/22 08:30:47;;;;;;;11.13;5.97;;;;;;;21.10;53.29;99037.88;5089715;28;20039;-75
2021/07/22 08:33:13;;;;;;;10.35;5.97;;;;;;;21.17;53.26;99040.06;5082431;28;20024;-73
2021/07/22 08:35:38;;;;;;;10.10;6.43;;;;;;;21.25;52.76;99041.88;5087343;28;20024;-74
2021/07/22 08:38:03;;;;;;;8.55;5.97;;;;;;;21.31;51.18;99034.06;5087019;28;20024;-73
2021/07/22 08:40:29;;;;;;;9.38;5.75;;;;;;;21.39;51.82;99033.13;5088555;28;20491;-70
2021/07/22 08:43:01;;;;;;;9.23;5.97;;;;;;;21.48;51.70;99025.41;5088301;28;20027;-73
2021/07/22 08:45:27;;;;;;;13.18;6.00;;;;;;;21.58;51.09;99024.06;5088571;28;20103;-76
2021/07/22 08:47:53;;;;;;;9.32;5.95;;;;;;;21.68;49.84;99025.56;5088953;28;20108;-75
2021/07/22 08:50:18;;;;;;;9.38;5.95;;;;;;;21.78;50.68;99039.00;5089608;28;20140;-74
2021/07/22 08:52:44;;;;;;;10.50;6.20;;;;;;;21.88;49.32;99031.28;5088714;28;20111;-75
2021/07/22 08:55:10;;;;;;;9.82;6.00;;;;;;;21.92;49.82;99029.38;5087827;28;20545;-74
2021/07/22 08:57:37;;;;;;;10.10;5.63;;;;;;;21.94;49.93;99022.25;5089077;28;20469;-75
2021/07/22 09:00:06;;;;;;;10.27;5.25;;;;;;;22.03;50.11;99021.28;5087849;28;20028;-75
2021/07/22 09:02:31;;;;;;;11.30;5.43;;;;;;;22.08;49.30;99021.81;5088230;28;20085;-75
2021/07/22 09:05:01;;;;;;;11.15;5.63;;;;;;;22.18;48.09;99017.69;5086741;28;20493;-75
2021/07/22 09:07:29;;;;;;;8.88;5.80;;;;;;;22.24;48.28;99016.22;5088917;28;21508;-75
2021/07/22 09:10:03;;;;;;;8.30;5.25;;;;;;;22.36;48.83;99020.09;5086372;28;20024;-78
2021/07/22 09:12:39;;;;;;;8.57;5.15;;;;;;;22.45;49.18;99023.56;5088053;28;20032;-73
2021/07/22 09:15:06;;;;;;;9.07;5.70;;;;;;;22.58;48.77;99018.66;5088164;28;20032;-76
2021/07/22 09:17:32;;;;;;;10.48;5.70;;;;;;;22.66;47.52;99017.66;5086728;28;20440;-76
2021/07/22 09:19:57;;;;;;;9.50;6.32;;;;;;;22.69;47.87;99027.28;5089432;28;20032;-75
2021/07/22 09:22:34;;;;;;;12.55;6.55;;;;;;;22.71;48.20;99025.75;5089113;28;20115;-78
2021/07/22 09:25:00;;;;;;;9.57;5.97;;;;;;;22.70;48.32;99026.09;5089551;28;20020;-76
2021/07/22 09:27:39;;;;;;;11.35;6.70;;;;;;;22.63;48.62;99025.94;5090804;28;20501;-75
2021/07/22 09:30:06;;;;;;;;;;;;;;;22.61;48.92;99031.91;5090471;28;20038;-77
2021/07/22 09:32:32;;;;;;;14.60;7.10;;;;;;;22.56;48.83;99027.41;5089637;28;19916;-77
2021/07/22 09:35:24;;;;;;;13.05;6.85;;;;;;;22.52;48.92;99034.91;5088694;28;20035;-77
2021/07/22 09:37:52;;;;;;;12.63;5.82;;;;;;;22.45;48.61;99024.34;5089088;28;20059;-78
2021/07/22 09:40:38;;;;;;;12.88;6.72;;;;;;;22.39;48.52;99024.97;5088842;28;20481;-81
2021/07/22 09:43:04;;;;;;;12.27;6.57;;;;;;;22.33;48.92;99023.63;5088002;28;20052;-75
2021/07/22 09:45:31;;;;;;;10.85;6.43;;;;;;;22.31;48.65;99022.00;5089649;28;20486;-79
2021/07/22 09:48:06;;;;;;;10.40;5.68;;;;;;;22.28;48.46;99013.53;5090708;28;20161;-79
2021/07/22 09:50:41;;;;;;;10.30;6.22;;;;;;;22.30;49.00;99022.38;5091316;28;20028;-81
2021/07/22 09:53:08;;;;;;;9.57;5.97;;;;;;;22.32;49.05;99020.03;5092903;28;20068;-77
2021/07/22 09:55:34;;;;;;;11.00;6.10;;;;;;;22.34;49.27;99023.28;5091054;28;20028;-77
2021/07/22 09:58:05;;;;;;;10.13;5.40;;;;;;;22.33;49.06;99016.06;5091097;28;20382;-78
2021/07/22 10:00:32;;;;;;;12.07;6.25;;;;;;;22.36;48.53;99017.31;5092070;28;20050;-75
2021/07/22 10:03:03;;;;;;;11.15;6.63;;;;;;;22.38;48.16;99013.00;5091269;28;20552;-74
2021/07/22 10:05:36;;;;;;;15.40;6.10;;;;;;;22.36;48.65;99012.53;5092939;28;20026;-73
2021/07/22 10:08:03;;;;;;;8.45;5.53;;;;;;;22.36;48.96;99015.34;5092031;28;20028;-75
2021/07/22 10:10:29;;;;;;;8.18;5.88;;;;;;;22.36;48.92;99018.13;5091907;28;20497;-75
2021/07/22 10:12:59;;;;;;;8.38;5.43;;;;;;;22.35;48.60;99024.06;5091328;28;20081;-75
2021/07/22 10:15:31;;;;;;;10.10;5.75;;;;;;;22.38;48.53;99017.75;5090303;28;20024;-76
2021/07/22 10:17:58;;;;;;;12.02;6.32;;;;;;;22.44;48.96;99021.94;5091066;28;20044;-76
2021/07/22 10:20:31;;;;;;;9.38;5.65;;;;;;;22.50;49.01;99014.06;5085121;28;20028;-75
2021/07/22 10:22:59;;;;;;;8.23;5.47;;;;;;;22.55;49.07;99013.78;5089105;28;20036;-78
2021/07/22 10:25:25;;;;;;;7.65;5.20;;;;;;;22.58;48.93;99019.47;5089693;28;20107;-78
2021/07/22 10:27:53;;;;;;;11.50;5.55;;;;;;;22.59;48.89;99011.91;5090668;28;20470;-77
2021/07/22 10:30:20;;;;;;;10.05;5.20;;;;;;;22.59;48.52;99023.91;5092666;28;20024;-77
2021/07/22 10:32:57;;;;;;;8.52;5.50;;;;;;;22.61;48.48;99015.13;5089849;28;20069;-73
2021/07/22 10:35:32;;;;;;;10.15;6.05;;;;;;;22.66;48.55;99014.03;5090139;28;20032;-76
2021/07/22 10:38:02;;;;;;;14.75;6.25;;;;;;;22.69;48.67;99021.69;5091893;28;20036;-75
2021/07/22 10:40:51;;;;;;;8.65;6.10;;;;;;;22.71;48.90;99027.72;5092415;28;20055;-74
2021/07/22 10:43:42;;;;;;;9.35;6.03;;;;;;;22.73;48.97;99019.78;5091073;28;20028;-78
2021/07/22 10:46:15;;;;;;;10.05;6.18;;;;;;;22.72;48.70;99018.16;5090327;28;20024;-76
2021/07/22 10:48:43;;;;;;;8.95;5.80;;;;;;;22.70;48.75;99018.56;5091205;28;20020;-78
2021/07/22 10:51:10;;;;;;;9.35;5.90;;;;;;;22.72;48.96;99015.38;5090704;28;20024;-78
2021/07/22 10:53:51;;;;;;;9.10;6.28;;;;;;;22.73;49.08;99023.41;5091070;28;20045;-78
2021/07/22 10:56:22;;;;;;;11.55;6.45;;;;;;;22.73;48.87;99012.22;5090898;28;20477;-78
2021/07/22 10:58:49;;;;;;;11.45;6.60;;;;;;;22.71;48.87;99019.34;5091716;28;20039;-76
2021/07/22 11:01:48;;;;;;;14.02;6.43;;;;;;;22.65;48.79;99016.03;5090812;28;20024;-77
2021/07/22 11:04:23;;;;;;;10.38;6.45;;;;;;;22.60;48.44;99021.91;5090316;28;20075;-73
2021/07/22 11:07:00;;;;;;;10.48;5.97;;;;;;;22.51;48.64;99022.09;5092592;28;20062;-77
2021/07/22 11:09:42;;;;;;;13.45;7.07;;;;;;;22.49;48.74;99026.41;5090765;28;20032;-78
2021/07/22 11:12:08;;;;;;;11.75;6.80;;;;;;;22.44;48.57;99014.34;5088835;28;20016;-75
2021/07/22 11:14:33;;;;;;;8.77;6.28;;;;;;;22.44;48.61;99027.53;5090579;28;20027;-75
2021/07/22 11:16:59;;;;;;;9.30;5.78;;;;;;;22.40;48.51;99016.22;5090284;28;20020;-74
2021/07/22 11:19:27;;;;;;;13.10;6.10;;;;;;;22.42;48.67;99022.25;5089019;28;20032;-74
2021/07/22 11:21:53;;;;;;;10.45;6.13;;;;;;;22.39;48.49;99013.78;5090550;28;20044;-73
2021/07/22 11:24:25;;;;;;;12.27;7.65;;;;;;;22.40;49.04;99013.44;5090381;28;20115;-74